This is the latest recevied weather packets stored in our database for station/object EA7RX-4. If no packets are shown the sender has not sent any weather packets the latest 10 day(s).
| Time | Temp. | Humidity | Pressure | Rain* | Wind** | Luminosity | Snow |
|---|---|---|---|---|---|---|---|
| 1787821803 | 16.67° C | 85% | 1013.3 hPa | 0 mm | - | 57 W/m² | - |
| 1787821203 | 16.11° C | 84% | 1013.3 hPa | 0 mm | - | 271 W/m² | - |
| 1787820603 | 16.11° C | 84% | 1013.2 hPa | 0 mm | - | 115 W/m² | - |
| 1787820003 | 16.11° C | 85% | 1013.1 hPa | 0 mm | - | 140 W/m² | - |
| 1787819403 | 15.56° C | 87% | 1013 hPa | 0 mm | - | 272 W/m² | - |
| 1787818803 | 15.56° C | 89% | 1013.1 hPa | 0.25 mm | - | 193 W/m² | - |
| 1787818203 | 15.56° C | 90% | 1013.2 hPa | 0.51 mm | - | 204 W/m² | - |
| 1787817603 | 15.56° C | 92% | 1013 hPa | 0.51 mm | - | 227 W/m² | - |
| 1787817003 | 15° C | 92% | 1012.9 hPa | 0.51 mm | - | 219 W/m² | - |
| 1787816403 | 14.44° C | 93% | 1012.9 hPa | 0.51 mm | - | 95 W/m² | - |
| 1787815803 | 14.44° C | 92% | 1012.9 hPa | 0.51 mm | - | 85 W/m² | - |
| 1787815203 | 15° C | 91% | 1012.9 hPa | 0.25 mm | - | 79 W/m² | - |
| 1787814603 | 16.11° C | 85% | 1012.6 hPa | 0 mm | - | 10 W/m² | - |
| 1787814003 | 16.67° C | 78% | 1012.2 hPa | 0 mm | - | 104 W/m² | - |
| 1787813403 | 16.67° C | 78% | 1012.1 hPa | 0 mm | - | 89 W/m² | - |
| 1787812803 | 16.11° C | 81% | 1011.7 hPa | 0 mm | - | 53 W/m² | - |
| 1787812203 | 16.11° C | 82% | 1011.7 hPa | 0 mm | - | 33 W/m² | - |
| 1787811603 | 16.11° C | 83% | 1011.8 hPa | 0 mm | - | 31 W/m² | - |
| 1787811003 | 16.11° C | 84% | 1011.7 hPa | 0 mm | - | 24 W/m² | - |
| 1787810403 | 15.56° C | 85% | 1011.6 hPa | 0 mm | - | 15 W/m² | - |
| 1787809803 | 15.56° C | 85% | 1011.7 hPa | 0 mm | - | 10 W/m² | - |
| 1787809203 | 15.56° C | 86% | 1011.4 hPa | 0 mm | - | 4 W/m² | - |
| 1787808603 | 15.56° C | 87% | 1011.3 hPa | 0 mm | - | 1 W/m² | - |
| 1787808003 | 15.56° C | 86% | 1011.5 hPa | 0 mm | - | 0 W/m² | - |
| 1787807403 | 16.11° C | 86% | 1011.6 hPa | 0 mm | - | 0 W/m² | - |
* Rain latest hour (hover to see other rain measurements)
** Current wind speed in m/s (hover to see current wind gust speed)